sensor_id;sensor_type;location;lat;lon;timestamp;P1;durP1;ratioP1;P2;durP2;ratioP2
8568;SDS011;4322;51.104;-4.162;2022-10-16T00:01:05;3.40;;;3.30;;
8568;SDS011;4322;51.104;-4.162;2022-10-16T00:03:34;4.30;;;4.10;;
8568;SDS011;4322;51.104;-4.162;2022-10-16T00:06:05;3.60;;;3.50;;
8568;SDS011;4322;51.104;-4.162;2022-10-16T00:08:33;4.20;;;4.00;;
8568;SDS011;4322;51.104;-4.162;2022-10-16T00:11:02;4.30;;;4.10;;
8568;SDS011;4322;51.104;-4.162;2022-10-16T00:13:33;5.33;;;5.13;;
8568;SDS011;4322;51.104;-4.162;2022-10-16T00:16:02;4.30;;;4.10;;
8568;SDS011;4322;51.104;-4.162;2022-10-16T00:18:30;4.20;;;4.00;;
8568;SDS011;4322;51.104;-4.162;2022-10-16T00:21:01;4.27;;;4.07;;
8568;SDS011;4322;51.104;-4.162;2022-10-16T00:23:31;4.10;;;3.90;;
8568;SDS011;4322;51.104;-4.162;2022-10-16T00:26:00;3.60;;;3.50;;
8568;SDS011;4322;51.104;-4.162;2022-10-16T00:28:29;3.90;;;3.80;;
8568;SDS011;4322;51.104;-4.162;2022-10-16T00:30:58;2.17;;;2.13;;
8568;SDS011;4322;51.104;-4.162;2022-10-16T00:33:26;1.60;;;1.60;;
8568;SDS011;4322;51.104;-4.162;2022-10-16T00:35:54;1.70;;;1.70;;
8568;SDS011;4322;51.104;-4.162;2022-10-16T00:38:24;1.67;;;1.67;;
8568;SDS011;4322;51.104;-4.162;2022-10-16T00:40:55;2.10;;;2.07;;
8568;SDS011;4322;51.104;-4.162;2022-10-16T00:43:34;1.73;;;1.73;;
8568;SDS011;4322;51.104;-4.162;2022-10-16T00:46:08;2.73;;;2.63;;
8568;SDS011;4322;51.104;-4.162;2022-10-16T00:48:40;2.60;;;2.50;;
8568;SDS011;4322;51.104;-4.162;2022-10-16T00:51:10;2.93;;;2.83;;
8568;SDS011;4322;51.104;-4.162;2022-10-16T00:53:38;3.33;;;3.23;;
8568;SDS011;4322;51.104;-4.162;2022-10-16T00:56:07;3.13;;;3.03;;
8568;SDS011;4322;51.104;-4.162;2022-10-16T00:58:35;2.83;;;2.73;;
8568;SDS011;4322;51.104;-4.162;2022-10-16T01:01:03;3.00;;;2.90;;
8568;SDS011;4322;51.104;-4.162;2022-10-16T01:03:32;2.40;;;2.30;;
8568;SDS011;4322;51.104;-4.162;2022-10-16T01:06:06;2.67;;;2.57;;
8568;SDS011;4322;51.104;-4.162;2022-10-16T01:08:44;2.00;;;2.00;;
8568;SDS011;4322;51.104;-4.162;2022-10-16T01:11:22;2.03;;;2.03;;
8568;SDS011;4322;51.104;-4.162;2022-10-16T01:13:57;1.73;;;1.73;;
8568;SDS011;4322;51.104;-4.162;2022-10-16T01:16:31;1.40;;;1.40;;
8568;SDS011;4322;51.104;-4.162;2022-10-16T01:19:05;1.80;;;1.80;;
8568;SDS011;4322;51.104;-4.162;2022-10-16T01:21:40;1.67;;;1.67;;
8568;SDS011;4322;51.104;-4.162;2022-10-16T01:24:15;1.40;;;1.40;;
8568;SDS011;4322;51.104;-4.162;2022-10-16T01:27:02;1.57;;;1.57;;
8568;SDS011;4322;51.104;-4.162;2022-10-16T01:29:34;1.50;;;1.50;;
8568;SDS011;4322;51.104;-4.162;2022-10-16T01:32:09;1.63;;;1.63;;
8568;SDS011;4322;51.104;-4.162;2022-10-16T01:34:44;1.50;;;1.50;;
8568;SDS011;4322;51.104;-4.162;2022-10-16T01:37:20;1.53;;;1.53;;
8568;SDS011;4322;51.104;-4.162;2022-10-16T01:39:55;1.10;;;1.10;;
8568;SDS011;4322;51.104;-4.162;2022-10-16T01:42:30;1.07;;;1.07;;
8568;SDS011;4322;51.104;-4.162;2022-10-16T01:45:02;1.10;;;1.10;;
8568;SDS011;4322;51.104;-4.162;2022-10-16T01:47:34;1.00;;;1.00;;
8568;SDS011;4322;51.104;-4.162;2022-10-16T01:50:04;1.10;;;1.10;;
8568;SDS011;4322;51.104;-4.162;2022-10-16T01:52:35;1.00;;;1.00;;
8568;SDS011;4322;51.104;-4.162;2022-10-16T01:55:06;1.10;;;1.10;;
8568;SDS011;4322;51.104;-4.162;2022-10-16T01:57:39;1.10;;;1.10;;
8568;SDS011;4322;51.104;-4.162;2022-10-16T02:00:12;1.23;;;1.23;;
8568;SDS011;4322;51.104;-4.162;2022-10-16T02:02:42;1.10;;;1.10;;
8568;SDS011;4322;51.104;-4.162;2022-10-16T02:05:16;1.20;;;1.20;;
8568;SDS011;4322;51.104;-4.162;2022-10-16T02:07:49;1.67;;;1.67;;
8568;SDS011;4322;51.104;-4.162;2022-10-16T02:10:17;1.60;;;1.60;;
8568;SDS011;4322;51.104;-4.162;2022-10-16T02:12:48;1.80;;;1.80;;
8568;SDS011;4322;51.104;-4.162;2022-10-16T02:15:21;2.80;;;2.70;;
8568;SDS011;4322;51.104;-4.162;2022-10-16T02:17:49;2.23;;;2.13;;
8568;SDS011;4322;51.104;-4.162;2022-10-16T02:20:17;2.70;;;2.60;;
8568;SDS011;4322;51.104;-4.162;2022-10-16T02:22:49;2.90;;;2.80;;
8568;SDS011;4322;51.104;-4.162;2022-10-16T02:25:19;3.00;;;2.90;;
8568;SDS011;4322;51.104;-4.162;2022-10-16T02:27:53;2.90;;;2.80;;
8568;SDS011;4322;51.104;-4.162;2022-10-16T02:30:29;3.30;;;3.20;;
8568;SDS011;4322;51.104;-4.162;2022-10-16T02:33:02;3.40;;;3.30;;
8568;SDS011;4322;51.104;-4.162;2022-10-16T02:35:34;5.60;;;5.40;;
8568;SDS011;4322;51.104;-4.162;2022-10-16T02:38:03;7.17;;;6.87;;
8568;SDS011;4322;51.104;-4.162;2022-10-16T02:40:32;7.10;;;6.80;;
8568;SDS011;4322;51.104;-4.162;2022-10-16T02:43:03;6.30;;;6.00;;
8568;SDS011;4322;51.104;-4.162;2022-10-16T02:45:31;6.60;;;6.30;;
8568;SDS011;4322;51.104;-4.162;2022-10-16T02:47:59;5.17;;;4.97;;
8568;SDS011;4322;51.104;-4.162;2022-10-16T02:50:27;4.90;;;4.70;;
8568;SDS011;4322;51.104;-4.162;2022-10-16T02:52:55;5.00;;;4.80;;
8568;SDS011;4322;51.104;-4.162;2022-10-16T02:55:23;4.70;;;4.50;;
8568;SDS011;4322;51.104;-4.162;2022-10-16T02:57:51;3.83;;;3.73;;
8568;SDS011;4322;51.104;-4.162;2022-10-16T03:00:21;4.50;;;4.30;;
8568;SDS011;4322;51.104;-4.162;2022-10-16T03:02:49;4.80;;;4.60;;
8568;SDS011;4322;51.104;-4.162;2022-10-16T03:05:17;4.87;;;4.67;;
8568;SDS011;4322;51.104;-4.162;2022-10-16T03:07:50;6.10;;;5.80;;
8568;SDS011;4322;51.104;-4.162;2022-10-16T03:10:19;6.53;;;6.23;;
8568;SDS011;4322;51.104;-4.162;2022-10-16T03:12:47;5.03;;;4.83;;
8568;SDS011;4322;51.104;-4.162;2022-10-16T03:15:14;4.97;;;4.77;;
8568;SDS011;4322;51.104;-4.162;2022-10-16T03:17:44;4.63;;;4.43;;
8568;SDS011;4322;51.104;-4.162;2022-10-16T03:20:12;6.50;;;6.20;;
8568;SDS011;4322;51.104;-4.162;2022-10-16T03:22:40;8.13;;;7.73;;
8568;SDS011;4322;51.104;-4.162;2022-10-16T03:25:08;7.03;;;6.73;;
8568;SDS011;4322;51.104;-4.162;2022-10-16T03:27:36;7.77;;;7.40;;
8568;SDS011;4322;51.104;-4.162;2022-10-16T03:30:04;5.53;;;5.33;;
8568;SDS011;4322;51.104;-4.162;2022-10-16T03:32:32;5.90;;;5.63;;
8568;SDS011;4322;51.104;-4.162;2022-10-16T03:35:02;5.30;;;5.10;;
8568;SDS011;4322;51.104;-4.162;2022-10-16T03:37:30;4.70;;;4.50;;
8568;SDS011;4322;51.104;-4.162;2022-10-16T03:39:58;4.93;;;4.73;;
8568;SDS011;4322;51.104;-4.162;2022-10-16T03:42:26;5.13;;;4.93;;
8568;SDS011;4322;51.104;-4.162;2022-10-16T03:44:54;5.13;;;4.93;;
8568;SDS011;4322;51.104;-4.162;2022-10-16T03:47:22;4.20;;;4.00;;
8568;SDS011;4322;51.104;-4.162;2022-10-16T03:49:50;4.30;;;4.10;;
8568;SDS011;4322;51.104;-4.162;2022-10-16T03:52:20;3.83;;;3.73;;
8568;SDS011;4322;51.104;-4.162;2022-10-16T03:54:48;4.57;;;4.37;;
8568;SDS011;4322;51.104;-4.162;2022-10-16T03:57:16;4.40;;;4.20;;
8568;SDS011;4322;51.104;-4.162;2022-10-16T03:59:44;3.63;;;3.53;;
8568;SDS011;4322;51.104;-4.162;2022-10-16T04:02:12;4.43;;;4.23;;
8568;SDS011;4322;51.104;-4.162;2022-10-16T04:04:40;4.10;;;3.90;;
8568;SDS011;4322;51.104;-4.162;2022-10-16T04:07:08;4.87;;;4.67;;
8568;SDS011;4322;51.104;-4.162;2022-10-16T04:09:37;4.47;;;4.27;;
8568;SDS011;4322;51.104;-4.162;2022-10-16T04:12:05;17.70;;;16.80;;
8568;SDS011;4322;51.104;-4.162;2022-10-16T04:14:33;23.67;;;22.47;;
8568;SDS011;4322;51.104;-4.162;2022-10-16T04:17:01;18.70;;;17.80;;
8568;SDS011;4322;51.104;-4.162;2022-10-16T04:19:29;20.43;;;19.43;;
8568;SDS011;4322;51.104;-4.162;2022-10-16T04:21:57;21.77;;;20.67;;
8568;SDS011;4322;51.104;-4.162;2022-10-16T04:24:25;20.47;;;19.47;;
8568;SDS011;4322;51.104;-4.162;2022-10-16T04:26:54;26.23;;;24.90;;
8568;SDS011;4322;51.104;-4.162;2022-10-16T04:29:22;26.00;;;24.70;;
8568;SDS011;4322;51.104;-4.162;2022-10-16T04:31:50;19.57;;;18.57;;
8568;SDS011;4322;51.104;-4.162;2022-10-16T04:34:18;22.60;;;21.47;;
8568;SDS011;4322;51.104;-4.162;2022-10-16T04:36:46;18.63;;;17.73;;
8568;SDS011;4322;51.104;-4.162;2022-10-16T04:39:15;22.17;;;21.07;;
8568;SDS011;4322;51.104;-4.162;2022-10-16T04:41:44;20.90;;;19.87;;
8568;SDS011;4322;51.104;-4.162;2022-10-16T04:44:14;18.43;;;17.53;;
8568;SDS011;4322;51.104;-4.162;2022-10-16T04:46:42;17.40;;;16.50;;
8568;SDS011;4322;51.104;-4.162;2022-10-16T04:49:10;21.30;;;20.20;;
8568;SDS011;4322;51.104;-4.162;2022-10-16T04:51:38;17.03;;;16.20;;
8568;SDS011;4322;51.104;-4.162;2022-10-16T04:54:06;16.87;;;16.07;;
8568;SDS011;4322;51.104;-4.162;2022-10-16T04:56:34;17.13;;;16.30;;
8568;SDS011;4322;51.104;-4.162;2022-10-16T04:59:09;14.87;;;14.17;;
8568;SDS011;4322;51.104;-4.162;2022-10-16T05:01:38;15.63;;;14.83;;
8568;SDS011;4322;51.104;-4.162;2022-10-16T05:04:06;16.43;;;15.63;;
8568;SDS011;4322;51.104;-4.162;2022-10-16T05:06:35;14.83;;;14.13;;
8568;SDS011;4322;51.104;-4.162;2022-10-16T05:09:04;16.00;;;15.20;;
8568;SDS011;4322;51.104;-4.162;2022-10-16T05:11:33;16.00;;;15.20;;
8568;SDS011;4322;51.104;-4.162;2022-10-16T05:14:02;16.23;;;15.43;;
8568;SDS011;4322;51.104;-4.162;2022-10-16T05:16:30;15.33;;;14.53;;
8568;SDS011;4322;51.104;-4.162;2022-10-16T05:18:59;15.43;;;14.63;;
8568;SDS011;4322;51.104;-4.162;2022-10-16T05:21:47;15.37;;;14.60;;
8568;SDS011;4322;51.104;-4.162;2022-10-16T05:24:15;16.23;;;15.43;;
8568;SDS011;4322;51.104;-4.162;2022-10-16T05:26:43;15.53;;;14.73;;
8568;SDS011;4322;51.104;-4.162;2022-10-16T05:29:11;14.73;;;14.03;;
8568;SDS011;4322;51.104;-4.162;2022-10-16T05:31:39;16.43;;;15.63;;
8568;SDS011;4322;51.104;-4.162;2022-10-16T05:34:08;16.50;;;15.70;;
8568;SDS011;4322;51.104;-4.162;2022-10-16T05:36:36;15.27;;;14.50;;
8568;SDS011;4322;51.104;-4.162;2022-10-16T05:39:04;16.63;;;15.83;;
8568;SDS011;4322;51.104;-4.162;2022-10-16T05:41:32;15.40;;;14.60;;
8568;SDS011;4322;51.104;-4.162;2022-10-16T05:44:03;15.50;;;14.70;;
8568;SDS011;4322;51.104;-4.162;2022-10-16T05:46:32;15.33;;;14.57;;
8568;SDS011;4322;51.104;-4.162;2022-10-16T05:49:00;14.70;;;14.00;;
8568;SDS011;4322;51.104;-4.162;2022-10-16T05:51:29;15.07;;;14.37;;
8568;SDS011;4322;51.104;-4.162;2022-10-16T05:53:57;14.37;;;13.67;;
8568;SDS011;4322;51.104;-4.162;2022-10-16T05:56:25;16.40;;;15.60;;
8568;SDS011;4322;51.104;-4.162;2022-10-16T05:58:53;13.83;;;13.13;;
8568;SDS011;4322;51.104;-4.162;2022-10-16T06:01:21;14.00;;;13.30;;
8568;SDS011;4322;51.104;-4.162;2022-10-16T06:03:50;13.97;;;13.27;;
8568;SDS011;4322;51.104;-4.162;2022-10-16T06:06:19;15.50;;;14.70;;
8568;SDS011;4322;51.104;-4.162;2022-10-16T06:08:53;15.83;;;15.03;;
8568;SDS011;4322;51.104;-4.162;2022-10-16T06:11:23;13.93;;;13.23;;
8568;SDS011;4322;51.104;-4.162;2022-10-16T06:13:52;12.03;;;11.43;;
8568;SDS011;4322;51.104;-4.162;2022-10-16T06:16:22;13.67;;;12.97;;
8568;SDS011;4322;51.104;-4.162;2022-10-16T06:18:51;14.67;;;13.97;;
8568;SDS011;4322;51.104;-4.162;2022-10-16T06:21:21;13.83;;;13.13;;
8568;SDS011;4322;51.104;-4.162;2022-10-16T06:23:53;14.43;;;13.73;;
8568;SDS011;4322;51.104;-4.162;2022-10-16T06:26:23;13.80;;;13.10;;
8568;SDS011;4322;51.104;-4.162;2022-10-16T06:28:53;13.57;;;12.87;;
8568;SDS011;4322;51.104;-4.162;2022-10-16T06:31:22;13.97;;;13.27;;
8568;SDS011;4322;51.104;-4.162;2022-10-16T06:33:54;13.83;;;13.13;;
8568;SDS011;4322;51.104;-4.162;2022-10-16T06:36:22;14.80;;;14.10;;
8568;SDS011;4322;51.104;-4.162;2022-10-16T06:38:52;13.57;;;12.87;;
8568;SDS011;4322;51.104;-4.162;2022-10-16T06:41:21;12.77;;;12.17;;
8568;SDS011;4322;51.104;-4.162;2022-10-16T06:43:49;13.30;;;12.67;;
8568;SDS011;4322;51.104;-4.162;2022-10-16T06:46:19;14.77;;;14.07;;
8568;SDS011;4322;51.104;-4.162;2022-10-16T06:48:48;13.53;;;12.87;;
8568;SDS011;4322;51.104;-4.162;2022-10-16T06:51:16;12.23;;;11.63;;
8568;SDS011;4322;51.104;-4.162;2022-10-16T06:53:46;13.37;;;12.70;;
8568;SDS011;4322;51.104;-4.162;2022-10-16T06:56:32;12.87;;;12.27;;
8568;SDS011;4322;51.104;-4.162;2022-10-16T06:59:00;13.27;;;12.63;;
8568;SDS011;4322;51.104;-4.162;2022-10-16T07:01:29;12.30;;;11.70;;
8568;SDS011;4322;51.104;-4.162;2022-10-16T07:03:57;12.00;;;11.40;;
8568;SDS011;4322;51.104;-4.162;2022-10-16T07:06:25;12.33;;;11.73;;
8568;SDS011;4322;51.104;-4.162;2022-10-16T07:08:54;12.40;;;11.80;;
8568;SDS011;4322;51.104;-4.162;2022-10-16T07:11:22;12.73;;;12.13;;
8568;SDS011;4322;51.104;-4.162;2022-10-16T07:13:52;12.80;;;12.20;;
8568;SDS011;4322;51.104;-4.162;2022-10-16T07:16:22;10.73;;;10.23;;
8568;SDS011;4322;51.104;-4.162;2022-10-16T07:18:51;12.70;;;12.10;;
8568;SDS011;4322;51.104;-4.162;2022-10-16T07:21:25;14.07;;;13.37;;
8568;SDS011;4322;51.104;-4.162;2022-10-16T07:23:56;12.43;;;11.83;;
8568;SDS011;4322;51.104;-4.162;2022-10-16T07:26:28;12.17;;;11.57;;
8568;SDS011;4322;51.104;-4.162;2022-10-16T07:28:59;11.90;;;11.30;;
8568;SDS011;4322;51.104;-4.162;2022-10-16T07:31:27;11.83;;;11.23;;
8568;SDS011;4322;51.104;-4.162;2022-10-16T07:37:13;13.00;;;12.40;;
8568;SDS011;4322;51.104;-4.162;2022-10-16T07:39:41;12.30;;;11.70;;
8568;SDS011;4322;51.104;-4.162;2022-10-16T07:42:09;11.40;;;10.87;;
8568;SDS011;4322;51.104;-4.162;2022-10-16T07:44:38;12.33;;;11.73;;
8568;SDS011;4322;51.104;-4.162;2022-10-16T07:47:07;9.97;;;9.47;;
8568;SDS011;4322;51.104;-4.162;2022-10-16T07:49:35;10.63;;;10.13;;
8568;SDS011;4322;51.104;-4.162;2022-10-16T07:52:03;11.53;;;10.97;;
8568;SDS011;4322;51.104;-4.162;2022-10-16T07:54:31;13.07;;;12.47;;
8568;SDS011;4322;51.104;-4.162;2022-10-16T07:56:59;12.80;;;12.20;;
8568;SDS011;4322;51.104;-4.162;2022-10-16T07:59:27;12.33;;;11.73;;
8568;SDS011;4322;51.104;-4.162;2022-10-16T08:01:56;12.10;;;11.50;;
8568;SDS011;4322;51.104;-4.162;2022-10-16T08:04:24;10.77;;;10.27;;
8568;SDS011;4322;51.104;-4.162;2022-10-16T08:06:52;11.00;;;10.50;;
8568;SDS011;4322;51.104;-4.162;2022-10-16T08:09:21;9.67;;;9.17;;
8568;SDS011;4322;51.104;-4.162;2022-10-16T08:11:48;10.40;;;9.90;;
8568;SDS011;4322;51.104;-4.162;2022-10-16T08:14:18;10.93;;;10.43;;
8568;SDS011;4322;51.104;-4.162;2022-10-16T08:16:45;10.53;;;10.03;;
8568;SDS011;4322;51.104;-4.162;2022-10-16T08:19:15;8.63;;;8.23;;
8568;SDS011;4322;51.104;-4.162;2022-10-16T08:21:46;9.40;;;9.00;;
8568;SDS011;4322;51.104;-4.162;2022-10-16T08:24:14;8.20;;;7.80;;
8568;SDS011;4322;51.104;-4.162;2022-10-16T08:26:42;9.23;;;8.83;;
8568;SDS011;4322;51.104;-4.162;2022-10-16T08:29:10;9.70;;;9.23;;
8568;SDS011;4322;51.104;-4.162;2022-10-16T08:31:38;10.10;;;9.60;;
8568;SDS011;4322;51.104;-4.162;2022-10-16T08:34:06;9.50;;;9.10;;
8568;SDS011;4322;51.104;-4.162;2022-10-16T08:36:35;8.90;;;8.50;;
8568;SDS011;4322;51.104;-4.162;2022-10-16T08:39:04;10.00;;;9.50;;
8568;SDS011;4322;51.104;-4.162;2022-10-16T08:41:37;10.13;;;9.63;;
8568;SDS011;4322;51.104;-4.162;2022-10-16T08:44:31;8.93;;;8.53;;
8568;SDS011;4322;51.104;-4.162;2022-10-16T08:47:12;10.00;;;9.50;;
8568;SDS011;4322;51.104;-4.162;2022-10-16T08:49:51;10.67;;;10.17;;
8568;SDS011;4322;51.104;-4.162;2022-10-16T08:55:27;9.17;;;8.77;;
8568;SDS011;4322;51.104;-4.162;2022-10-16T08:57:59;9.47;;;9.07;;
8568;SDS011;4322;51.104;-4.162;2022-10-16T09:00:28;8.17;;;7.77;;
8568;SDS011;4322;51.104;-4.162;2022-10-16T09:03:00;9.53;;;9.10;;
8568;SDS011;4322;51.104;-4.162;2022-10-16T09:05:39;8.93;;;8.53;;
8568;SDS011;4322;51.104;-4.162;2022-10-16T09:08:22;8.63;;;8.23;;
8568;SDS011;4322;51.104;-4.162;2022-10-16T09:10:58;8.30;;;7.90;;
8568;SDS011;4322;51.104;-4.162;2022-10-16T09:13:33;8.50;;;8.10;;
8568;SDS011;4322;51.104;-4.162;2022-10-16T09:16:12;6.73;;;6.43;;
8568;SDS011;4322;51.104;-4.162;2022-10-16T09:18:45;8.40;;;8.00;;
8568;SDS011;4322;51.104;-4.162;2022-10-16T09:21:21;8.50;;;8.10;;
8568;SDS011;4322;51.104;-4.162;2022-10-16T09:23:52;7.87;;;7.47;;
8568;SDS011;4322;51.104;-4.162;2022-10-16T09:26:24;7.47;;;7.17;;
8568;SDS011;4322;51.104;-4.162;2022-10-16T09:28:52;7.13;;;6.83;;
8568;SDS011;4322;51.104;-4.162;2022-10-16T09:31:21;8.20;;;7.80;;
8568;SDS011;4322;51.104;-4.162;2022-10-16T09:33:51;8.57;;;8.17;;
8568;SDS011;4322;51.104;-4.162;2022-10-16T09:36:22;7.93;;;7.53;;
8568;SDS011;4322;51.104;-4.162;2022-10-16T09:39:03;8.80;;;8.40;;
8568;SDS011;4322;51.104;-4.162;2022-10-16T09:41:33;8.77;;;8.37;;
8568;SDS011;4322;51.104;-4.162;2022-10-16T09:44:04;7.57;;;7.27;;
8568;SDS011;4322;51.104;-4.162;2022-10-16T09:46:44;8.07;;;7.67;;
8568;SDS011;4322;51.104;-4.162;2022-10-16T09:49:21;7.30;;;7.00;;
8568;SDS011;4322;51.104;-4.162;2022-10-16T09:52:02;6.60;;;6.30;;
8568;SDS011;4322;51.104;-4.162;2022-10-16T09:54:32;6.97;;;6.67;;
8568;SDS011;4322;51.104;-4.162;2022-10-16T09:57:04;7.23;;;6.93;;
8568;SDS011;4322;51.104;-4.162;2022-10-16T09:59:33;7.60;;;7.30;;
8568;SDS011;4322;51.104;-4.162;2022-10-16T10:02:02;7.67;;;7.33;;
8568;SDS011;4322;51.104;-4.162;2022-10-16T10:04:38;7.87;;;7.47;;
8568;SDS011;4322;51.104;-4.162;2022-10-16T10:07:16;7.50;;;7.20;;
8568;SDS011;4322;51.104;-4.162;2022-10-16T10:09:47;7.27;;;6.97;;
8568;SDS011;4322;51.104;-4.162;2022-10-16T10:12:19;7.07;;;6.77;;
8568;SDS011;4322;51.104;-4.162;2022-10-16T10:14:52;7.43;;;7.13;;
8568;SDS011;4322;51.104;-4.162;2022-10-16T10:17:23;7.10;;;6.80;;
8568;SDS011;4322;51.104;-4.162;2022-10-16T10:19:53;7.07;;;6.77;;
8568;SDS011;4322;51.104;-4.162;2022-10-16T10:22:26;7.50;;;7.20;;
8568;SDS011;4322;51.104;-4.162;2022-10-16T10:25:13;7.20;;;6.90;;
8568;SDS011;4322;51.104;-4.162;2022-10-16T10:27:53;6.63;;;6.33;;
8568;SDS011;4322;51.104;-4.162;2022-10-16T10:30:33;6.57;;;6.27;;
8568;SDS011;4322;51.104;-4.162;2022-10-16T10:33:15;7.30;;;7.00;;
8568;SDS011;4322;51.104;-4.162;2022-10-16T10:35:54;6.60;;;6.30;;
8568;SDS011;4322;51.104;-4.162;2022-10-16T10:38:31;6.30;;;6.00;;
8568;SDS011;4322;51.104;-4.162;2022-10-16T10:41:12;6.73;;;6.43;;
8568;SDS011;4322;51.104;-4.162;2022-10-16T10:43:59;6.77;;;6.47;;
8568;SDS011;4322;51.104;-4.162;2022-10-16T10:46:38;6.13;;;5.83;;
8568;SDS011;4322;51.104;-4.162;2022-10-16T10:49:18;6.57;;;6.27;;
8568;SDS011;4322;51.104;-4.162;2022-10-16T10:52:01;6.27;;;5.97;;
8568;SDS011;4322;51.104;-4.162;2022-10-16T10:54:41;6.67;;;6.37;;
8568;SDS011;4322;51.104;-4.162;2022-10-16T10:57:23;3.77;;;3.67;;
8568;SDS011;4322;51.104;-4.162;2022-10-16T11:00:03;4.60;;;4.40;;
8568;SDS011;4322;51.104;-4.162;2022-10-16T11:02:41;5.20;;;5.00;;
8568;SDS011;4322;51.104;-4.162;2022-10-16T11:05:19;2.97;;;2.87;;
8568;SDS011;4322;51.104;-4.162;2022-10-16T11:07:57;2.77;;;2.67;;
8568;SDS011;4322;51.104;-4.162;2022-10-16T11:10:28;3.47;;;3.37;;
8568;SDS011;4322;51.104;-4.162;2022-10-16T11:13:17;2.90;;;2.80;;
8568;SDS011;4322;51.104;-4.162;2022-10-16T11:15:51;2.67;;;2.57;;
8568;SDS011;4322;51.104;-4.162;2022-10-16T11:18:24;2.00;;;2.00;;
8568;SDS011;4322;51.104;-4.162;2022-10-16T11:21:00;1.70;;;1.70;;
8568;SDS011;4322;51.104;-4.162;2022-10-16T11:23:35;2.37;;;2.27;;
8568;SDS011;4322;51.104;-4.162;2022-10-16T11:26:10;1.90;;;1.90;;
8568;SDS011;4322;51.104;-4.162;2022-10-16T11:28:47;1.80;;;1.80;;
8568;SDS011;4322;51.104;-4.162;2022-10-16T11:31:19;1.60;;;1.60;;
8568;SDS011;4322;51.104;-4.162;2022-10-16T11:33:54;1.10;;;1.10;;
8568;SDS011;4322;51.104;-4.162;2022-10-16T11:36:34;1.20;;;1.20;;
8568;SDS011;4322;51.104;-4.162;2022-10-16T11:39:11;1.00;;;1.00;;
8568;SDS011;4322;51.104;-4.162;2022-10-16T11:41:47;0.90;;;0.90;;
8568;SDS011;4322;51.104;-4.162;2022-10-16T11:44:24;0.87;;;0.87;;
8568;SDS011;4322;51.104;-4.162;2022-10-16T11:47:06;0.90;;;0.90;;
8568;SDS011;4322;51.104;-4.162;2022-10-16T11:50:03;0.70;;;0.70;;
8568;SDS011;4322;51.104;-4.162;2022-10-16T11:52:38;0.70;;;0.70;;
8568;SDS011;4322;51.104;-4.162;2022-10-16T11:55:13;0.90;;;0.90;;
8568;SDS011;4322;51.104;-4.162;2022-10-16T11:57:44;0.93;;;0.93;;
8568;SDS011;4322;51.104;-4.162;2022-10-16T12:00:20;0.80;;;0.80;;
8568;SDS011;4322;51.104;-4.162;2022-10-16T12:02:54;0.93;;;0.93;;
8568;SDS011;4322;51.104;-4.162;2022-10-16T12:05:29;1.00;;;1.00;;
8568;SDS011;4322;51.104;-4.162;2022-10-16T12:08:11;0.90;;;0.90;;
8568;SDS011;4322;51.104;-4.162;2022-10-16T12:10:42;0.80;;;0.80;;
8568;SDS011;4322;51.104;-4.162;2022-10-16T12:13:28;0.90;;;0.90;;
8568;SDS011;4322;51.104;-4.162;2022-10-16T12:16:06;1.03;;;1.03;;
8568;SDS011;4322;51.104;-4.162;2022-10-16T12:18:47;1.20;;;1.20;;
8568;SDS011;4322;51.104;-4.162;2022-10-16T12:21:16;1.00;;;1.00;;
8568;SDS011;4322;51.104;-4.162;2022-10-16T12:23:49;1.17;;;1.17;;
8568;SDS011;4322;51.104;-4.162;2022-10-16T12:26:25;1.00;;;1.00;;
8568;SDS011;4322;51.104;-4.162;2022-10-16T12:28:55;1.10;;;1.10;;
8568;SDS011;4322;51.104;-4.162;2022-10-16T12:31:42;1.00;;;1.00;;
8568;SDS011;4322;51.104;-4.162;2022-10-16T12:34:24;1.10;;;1.10;;
8568;SDS011;4322;51.104;-4.162;2022-10-16T12:36:56;1.20;;;1.20;;
8568;SDS011;4322;51.104;-4.162;2022-10-16T12:39:35;1.10;;;1.10;;
8568;SDS011;4322;51.104;-4.162;2022-10-16T12:42:04;1.33;;;1.33;;
8568;SDS011;4322;51.104;-4.162;2022-10-16T12:44:46;1.17;;;1.17;;
8568;SDS011;4322;51.104;-4.162;2022-10-16T12:47:22;1.30;;;1.30;;
8568;SDS011;4322;51.104;-4.162;2022-10-16T12:50:02;1.30;;;1.30;;
8568;SDS011;4322;51.104;-4.162;2022-10-16T12:52:50;1.10;;;1.10;;
8568;SDS011;4322;51.104;-4.162;2022-10-16T12:55:18;1.20;;;1.20;;
8568;SDS011;4322;51.104;-4.162;2022-10-16T12:57:54;1.17;;;1.17;;
8568;SDS011;4322;51.104;-4.162;2022-10-16T13:00:33;1.30;;;1.30;;
8568;SDS011;4322;51.104;-4.162;2022-10-16T13:06:27;1.30;;;1.30;;
8568;SDS011;4322;51.104;-4.162;2022-10-16T13:09:07;1.20;;;1.20;;
8568;SDS011;4322;51.104;-4.162;2022-10-16T13:11:47;1.30;;;1.30;;
8568;SDS011;4322;51.104;-4.162;2022-10-16T13:14:30;1.40;;;1.40;;
8568;SDS011;4322;51.104;-4.162;2022-10-16T13:17:15;1.47;;;1.47;;
8568;SDS011;4322;51.104;-4.162;2022-10-16T13:19:52;1.70;;;1.70;;
8568;SDS011;4322;51.104;-4.162;2022-10-16T13:22:28;1.57;;;1.57;;
8568;SDS011;4322;51.104;-4.162;2022-10-16T13:25:04;1.70;;;1.70;;
8568;SDS011;4322;51.104;-4.162;2022-10-16T13:27:46;1.90;;;1.90;;
8568;SDS011;4322;51.104;-4.162;2022-10-16T13:30:22;1.90;;;1.90;;
8568;SDS011;4322;51.104;-4.162;2022-10-16T13:32:58;1.83;;;1.83;;
8568;SDS011;4322;51.104;-4.162;2022-10-16T13:35:30;1.90;;;1.90;;
8568;SDS011;4322;51.104;-4.162;2022-10-16T13:38:09;1.80;;;1.80;;
8568;SDS011;4322;51.104;-4.162;2022-10-16T13:40:53;1.60;;;1.60;;
8568;SDS011;4322;51.104;-4.162;2022-10-16T13:43:24;1.60;;;1.60;;
8568;SDS011;4322;51.104;-4.162;2022-10-16T13:45:57;1.70;;;1.70;;
8568;SDS011;4322;51.104;-4.162;2022-10-16T13:48:26;1.70;;;1.70;;
8568;SDS011;4322;51.104;-4.162;2022-10-16T13:51:04;1.63;;;1.63;;
8568;SDS011;4322;51.104;-4.162;2022-10-16T13:53:34;1.70;;;1.70;;
8568;SDS011;4322;51.104;-4.162;2022-10-16T13:56:04;1.50;;;1.50;;
8568;SDS011;4322;51.104;-4.162;2022-10-16T13:58:34;1.70;;;1.70;;
8568;SDS011;4322;51.104;-4.162;2022-10-16T14:01:02;1.80;;;1.80;;
8568;SDS011;4322;51.104;-4.162;2022-10-16T14:03:33;1.80;;;1.80;;
8568;SDS011;4322;51.104;-4.162;2022-10-16T14:06:05;1.80;;;1.80;;
8568;SDS011;4322;51.104;-4.162;2022-10-16T14:08:43;1.90;;;1.90;;
8568;SDS011;4322;51.104;-4.162;2022-10-16T14:11:19;1.70;;;1.70;;
8568;SDS011;4322;51.104;-4.162;2022-10-16T14:13:50;1.70;;;1.70;;
8568;SDS011;4322;51.104;-4.162;2022-10-16T14:16:20;1.90;;;1.90;;
8568;SDS011;4322;51.104;-4.162;2022-10-16T14:18:52;1.70;;;1.70;;
8568;SDS011;4322;51.104;-4.162;2022-10-16T14:21:26;1.80;;;1.80;;
8568;SDS011;4322;51.104;-4.162;2022-10-16T14:23:54;1.80;;;1.80;;
8568;SDS011;4322;51.104;-4.162;2022-10-16T14:26:23;1.70;;;1.70;;
8568;SDS011;4322;51.104;-4.162;2022-10-16T14:29:10;1.70;;;1.70;;
8568;SDS011;4322;51.104;-4.162;2022-10-16T14:31:40;1.73;;;1.73;;
8568;SDS011;4322;51.104;-4.162;2022-10-16T14:34:25;1.60;;;1.60;;
8568;SDS011;4322;51.104;-4.162;2022-10-16T14:36:56;1.60;;;1.60;;
8568;SDS011;4322;51.104;-4.162;2022-10-16T14:39:27;1.53;;;1.53;;
8568;SDS011;4322;51.104;-4.162;2022-10-16T14:41:56;1.50;;;1.50;;
8568;SDS011;4322;51.104;-4.162;2022-10-16T14:44:29;1.50;;;1.50;;
8568;SDS011;4322;51.104;-4.162;2022-10-16T14:47:06;1.50;;;1.50;;
8568;SDS011;4322;51.104;-4.162;2022-10-16T14:49:37;1.60;;;1.60;;
8568;SDS011;4322;51.104;-4.162;2022-10-16T14:52:09;1.50;;;1.50;;
8568;SDS011;4322;51.104;-4.162;2022-10-16T14:54:38;1.50;;;1.50;;
8568;SDS011;4322;51.104;-4.162;2022-10-16T14:57:13;1.60;;;1.60;;
8568;SDS011;4322;51.104;-4.162;2022-10-16T14:59:44;1.50;;;1.50;;
8568;SDS011;4322;51.104;-4.162;2022-10-16T15:02:16;1.73;;;1.73;;
8568;SDS011;4322;51.104;-4.162;2022-10-16T15:04:50;1.80;;;1.80;;
8568;SDS011;4322;51.104;-4.162;2022-10-16T15:07:20;1.57;;;1.57;;
8568;SDS011;4322;51.104;-4.162;2022-10-16T15:09:49;1.70;;;1.70;;
8568;SDS011;4322;51.104;-4.162;2022-10-16T15:12:17;1.60;;;1.60;;
8568;SDS011;4322;51.104;-4.162;2022-10-16T15:14:45;1.80;;;1.80;;
8568;SDS011;4322;51.104;-4.162;2022-10-16T15:17:14;1.80;;;1.80;;
8568;SDS011;4322;51.104;-4.162;2022-10-16T15:19:46;1.70;;;1.70;;
8568;SDS011;4322;51.104;-4.162;2022-10-16T15:22:14;1.53;;;1.53;;
8568;SDS011;4322;51.104;-4.162;2022-10-16T15:24:44;1.50;;;1.50;;
8568;SDS011;4322;51.104;-4.162;2022-10-16T15:27:12;1.60;;;1.60;;
8568;SDS011;4322;51.104;-4.162;2022-10-16T15:29:40;1.50;;;1.50;;
8568;SDS011;4322;51.104;-4.162;2022-10-16T15:32:08;1.57;;;1.57;;